sensor_id;sensor_type;location;lat;lon;timestamp;P1;durP1;ratioP1;P2;durP2;ratioP2
8568;SDS011;4322;51.104;-4.162;2022-07-10T00:00:51;1.10;;;1.10;;
8568;SDS011;4322;51.104;-4.162;2022-07-10T00:03:20;1.20;;;1.20;;
8568;SDS011;4322;51.104;-4.162;2022-07-10T00:05:48;1.20;;;1.20;;
8568;SDS011;4322;51.104;-4.162;2022-07-10T00:08:16;1.20;;;1.20;;
8568;SDS011;4322;51.104;-4.162;2022-07-10T00:10:44;1.10;;;1.10;;
8568;SDS011;4322;51.104;-4.162;2022-07-10T00:13:14;1.20;;;1.20;;
8568;SDS011;4322;51.104;-4.162;2022-07-10T00:15:42;1.10;;;1.10;;
8568;SDS011;4322;51.104;-4.162;2022-07-10T00:18:10;1.00;;;1.00;;
8568;SDS011;4322;51.104;-4.162;2022-07-10T00:20:38;1.20;;;1.20;;
8568;SDS011;4322;51.104;-4.162;2022-07-10T00:23:06;1.20;;;1.20;;
8568;SDS011;4322;51.104;-4.162;2022-07-10T00:25:34;1.10;;;1.10;;
8568;SDS011;4322;51.104;-4.162;2022-07-10T00:28:02;1.20;;;1.20;;
8568;SDS011;4322;51.104;-4.162;2022-07-10T00:30:32;1.10;;;1.10;;
8568;SDS011;4322;51.104;-4.162;2022-07-10T00:33:00;1.10;;;1.10;;
8568;SDS011;4322;51.104;-4.162;2022-07-10T00:35:28;1.00;;;1.00;;
8568;SDS011;4322;51.104;-4.162;2022-07-10T00:37:56;1.00;;;1.00;;
8568;SDS011;4322;51.104;-4.162;2022-07-10T00:40:24;1.10;;;1.10;;
8568;SDS011;4322;51.104;-4.162;2022-07-10T00:42:52;1.10;;;1.10;;
8568;SDS011;4322;51.104;-4.162;2022-07-10T00:45:21;1.10;;;1.10;;
8568;SDS011;4322;51.104;-4.162;2022-07-10T00:47:50;1.20;;;1.20;;
8568;SDS011;4322;51.104;-4.162;2022-07-10T00:50:18;1.10;;;1.10;;
8568;SDS011;4322;51.104;-4.162;2022-07-10T00:52:46;1.00;;;1.00;;
8568;SDS011;4322;51.104;-4.162;2022-07-10T00:55:14;1.10;;;1.10;;
8568;SDS011;4322;51.104;-4.162;2022-07-10T00:57:43;1.10;;;1.10;;
8568;SDS011;4322;51.104;-4.162;2022-07-10T01:00:11;1.10;;;1.10;;
8568;SDS011;4322;51.104;-4.162;2022-07-10T01:02:40;1.20;;;1.20;;
8568;SDS011;4322;51.104;-4.162;2022-07-10T01:05:11;1.20;;;1.20;;
8568;SDS011;4322;51.104;-4.162;2022-07-10T01:07:39;1.13;;;1.13;;
8568;SDS011;4322;51.104;-4.162;2022-07-10T01:10:07;1.20;;;1.20;;
8568;SDS011;4322;51.104;-4.162;2022-07-10T01:12:35;1.10;;;1.10;;
8568;SDS011;4322;51.104;-4.162;2022-07-10T01:15:04;1.10;;;1.10;;
8568;SDS011;4322;51.104;-4.162;2022-07-10T01:17:33;1.03;;;1.03;;
8568;SDS011;4322;51.104;-4.162;2022-07-10T01:20:04;1.10;;;1.10;;
8568;SDS011;4322;51.104;-4.162;2022-07-10T01:22:34;1.17;;;1.17;;
8568;SDS011;4322;51.104;-4.162;2022-07-10T01:25:04;1.10;;;1.10;;
8568;SDS011;4322;51.104;-4.162;2022-07-10T01:27:33;1.10;;;1.10;;
8568;SDS011;4322;51.104;-4.162;2022-07-10T01:30:02;1.10;;;1.10;;
8568;SDS011;4322;51.104;-4.162;2022-07-10T01:32:36;1.20;;;1.20;;
8568;SDS011;4322;51.104;-4.162;2022-07-10T01:35:05;0.97;;;0.97;;
8568;SDS011;4322;51.104;-4.162;2022-07-10T01:37:35;1.20;;;1.20;;
8568;SDS011;4322;51.104;-4.162;2022-07-10T01:40:03;1.00;;;1.00;;
8568;SDS011;4322;51.104;-4.162;2022-07-10T01:42:33;1.10;;;1.10;;
8568;SDS011;4322;51.104;-4.162;2022-07-10T01:45:01;1.10;;;1.10;;
8568;SDS011;4322;51.104;-4.162;2022-07-10T01:47:32;1.10;;;1.10;;
8568;SDS011;4322;51.104;-4.162;2022-07-10T01:50:00;1.00;;;1.00;;
8568;SDS011;4322;51.104;-4.162;2022-07-10T01:52:28;0.90;;;0.90;;
8568;SDS011;4322;51.104;-4.162;2022-07-10T01:54:58;1.03;;;1.03;;
8568;SDS011;4322;51.104;-4.162;2022-07-10T01:57:26;1.00;;;1.00;;
8568;SDS011;4322;51.104;-4.162;2022-07-10T01:59:54;1.20;;;1.20;;
8568;SDS011;4322;51.104;-4.162;2022-07-10T02:02:22;1.03;;;1.03;;
8568;SDS011;4322;51.104;-4.162;2022-07-10T02:04:50;1.10;;;1.10;;
8568;SDS011;4322;51.104;-4.162;2022-07-10T02:07:18;1.10;;;1.10;;
8568;SDS011;4322;51.104;-4.162;2022-07-10T02:09:48;0.97;;;0.97;;
8568;SDS011;4322;51.104;-4.162;2022-07-10T02:12:18;1.00;;;1.00;;
8568;SDS011;4322;51.104;-4.162;2022-07-10T02:14:46;1.17;;;1.17;;
8568;SDS011;4322;51.104;-4.162;2022-07-10T02:17:14;1.10;;;1.10;;
8568;SDS011;4322;51.104;-4.162;2022-07-10T02:19:43;0.87;;;0.87;;
8568;SDS011;4322;51.104;-4.162;2022-07-10T02:22:11;1.00;;;1.00;;
8568;SDS011;4322;51.104;-4.162;2022-07-10T02:24:39;1.10;;;1.10;;
8568;SDS011;4322;51.104;-4.162;2022-07-10T02:27:07;1.00;;;1.00;;
8568;SDS011;4322;51.104;-4.162;2022-07-10T02:29:36;1.10;;;1.10;;
8568;SDS011;4322;51.104;-4.162;2022-07-10T02:32:05;1.10;;;1.10;;
8568;SDS011;4322;51.104;-4.162;2022-07-10T02:34:33;1.03;;;1.03;;
8568;SDS011;4322;51.104;-4.162;2022-07-10T02:37:01;1.00;;;1.00;;
8568;SDS011;4322;51.104;-4.162;2022-07-10T02:39:30;0.90;;;0.90;;
8568;SDS011;4322;51.104;-4.162;2022-07-10T02:41:58;1.13;;;1.13;;
8568;SDS011;4322;51.104;-4.162;2022-07-10T02:44:26;1.00;;;1.00;;
8568;SDS011;4322;51.104;-4.162;2022-07-10T02:46:57;1.10;;;1.10;;
8568;SDS011;4322;51.104;-4.162;2022-07-10T02:49:25;1.00;;;1.00;;
8568;SDS011;4322;51.104;-4.162;2022-07-10T02:51:53;1.60;;;1.60;;
8568;SDS011;4322;51.104;-4.162;2022-07-10T02:54:21;1.40;;;1.40;;
8568;SDS011;4322;51.104;-4.162;2022-07-10T02:56:49;1.00;;;1.00;;
8568;SDS011;4322;51.104;-4.162;2022-07-10T02:59:17;0.90;;;0.90;;
8568;SDS011;4322;51.104;-4.162;2022-07-10T03:01:45;1.00;;;1.00;;
8568;SDS011;4322;51.104;-4.162;2022-07-10T03:04:14;1.10;;;1.10;;
8568;SDS011;4322;51.104;-4.162;2022-07-10T03:06:42;1.03;;;1.03;;
8568;SDS011;4322;51.104;-4.162;2022-07-10T03:09:10;1.00;;;1.00;;
8568;SDS011;4322;51.104;-4.162;2022-07-10T03:11:38;1.60;;;1.60;;
8568;SDS011;4322;51.104;-4.162;2022-07-10T03:14:06;1.20;;;1.20;;
8568;SDS011;4322;51.104;-4.162;2022-07-10T03:16:34;1.10;;;1.10;;
8568;SDS011;4322;51.104;-4.162;2022-07-10T03:19:02;1.10;;;1.10;;
8568;SDS011;4322;51.104;-4.162;2022-07-10T03:21:32;1.10;;;1.10;;
8568;SDS011;4322;51.104;-4.162;2022-07-10T03:24:00;1.10;;;1.10;;
8568;SDS011;4322;51.104;-4.162;2022-07-10T03:26:28;1.20;;;1.20;;
8568;SDS011;4322;51.104;-4.162;2022-07-10T03:28:56;1.10;;;1.10;;
8568;SDS011;4322;51.104;-4.162;2022-07-10T03:31:25;1.63;;;1.63;;
8568;SDS011;4322;51.104;-4.162;2022-07-10T03:33:53;1.20;;;1.20;;
8568;SDS011;4322;51.104;-4.162;2022-07-10T03:36:21;1.10;;;1.10;;
8568;SDS011;4322;51.104;-4.162;2022-07-10T03:38:50;1.10;;;1.10;;
8568;SDS011;4322;51.104;-4.162;2022-07-10T03:41:18;1.10;;;1.10;;
8568;SDS011;4322;51.104;-4.162;2022-07-10T03:43:46;1.07;;;1.07;;
8568;SDS011;4322;51.104;-4.162;2022-07-10T03:46:14;1.20;;;1.20;;
8568;SDS011;4322;51.104;-4.162;2022-07-10T03:48:42;1.20;;;1.20;;
8568;SDS011;4322;51.104;-4.162;2022-07-10T03:51:10;1.37;;;1.37;;
8568;SDS011;4322;51.104;-4.162;2022-07-10T03:53:38;1.60;;;1.60;;
8568;SDS011;4322;51.104;-4.162;2022-07-10T03:56:08;1.30;;;1.30;;
8568;SDS011;4322;51.104;-4.162;2022-07-10T03:58:56;1.20;;;1.20;;
8568;SDS011;4322;51.104;-4.162;2022-07-10T04:01:23;1.20;;;1.20;;
8568;SDS011;4322;51.104;-4.162;2022-07-10T04:03:51;1.00;;;1.00;;
8568;SDS011;4322;51.104;-4.162;2022-07-10T04:06:19;1.00;;;1.00;;
8568;SDS011;4322;51.104;-4.162;2022-07-10T04:08:47;1.10;;;1.10;;
8568;SDS011;4322;51.104;-4.162;2022-07-10T04:11:16;1.00;;;1.00;;
8568;SDS011;4322;51.104;-4.162;2022-07-10T04:13:44;1.00;;;1.00;;
8568;SDS011;4322;51.104;-4.162;2022-07-10T04:16:12;1.00;;;1.00;;
8568;SDS011;4322;51.104;-4.162;2022-07-10T04:18:41;1.10;;;1.10;;
8568;SDS011;4322;51.104;-4.162;2022-07-10T04:21:09;1.00;;;1.00;;
8568;SDS011;4322;51.104;-4.162;2022-07-10T04:23:37;1.10;;;1.10;;
8568;SDS011;4322;51.104;-4.162;2022-07-10T04:26:05;1.00;;;1.00;;
8568;SDS011;4322;51.104;-4.162;2022-07-10T04:28:35;1.10;;;1.10;;
8568;SDS011;4322;51.104;-4.162;2022-07-10T04:31:03;1.17;;;1.17;;
8568;SDS011;4322;51.104;-4.162;2022-07-10T04:33:32;1.10;;;1.10;;
8568;SDS011;4322;51.104;-4.162;2022-07-10T04:36:00;1.10;;;1.10;;
8568;SDS011;4322;51.104;-4.162;2022-07-10T04:38:28;1.23;;;1.23;;
8568;SDS011;4322;51.104;-4.162;2022-07-10T04:40:58;1.20;;;1.20;;
8568;SDS011;4322;51.104;-4.162;2022-07-10T04:43:26;1.10;;;1.10;;
8568;SDS011;4322;51.104;-4.162;2022-07-10T04:45:55;1.17;;;1.17;;
8568;SDS011;4322;51.104;-4.162;2022-07-10T04:48:24;1.23;;;1.23;;
8568;SDS011;4322;51.104;-4.162;2022-07-10T04:50:52;1.23;;;1.23;;
8568;SDS011;4322;51.104;-4.162;2022-07-10T04:53:20;1.20;;;1.20;;
8568;SDS011;4322;51.104;-4.162;2022-07-10T04:55:48;1.03;;;1.03;;
8568;SDS011;4322;51.104;-4.162;2022-07-10T04:58:16;1.00;;;1.00;;
8568;SDS011;4322;51.104;-4.162;2022-07-10T05:00:44;1.20;;;1.20;;
8568;SDS011;4322;51.104;-4.162;2022-07-10T05:03:13;1.70;;;1.70;;
8568;SDS011;4322;51.104;-4.162;2022-07-10T05:05:42;1.00;;;1.00;;
8568;SDS011;4322;51.104;-4.162;2022-07-10T05:08:10;1.07;;;1.07;;
8568;SDS011;4322;51.104;-4.162;2022-07-10T05:10:38;1.20;;;1.20;;
8568;SDS011;4322;51.104;-4.162;2022-07-10T05:13:07;1.10;;;1.10;;
8568;SDS011;4322;51.104;-4.162;2022-07-10T05:15:35;1.00;;;1.00;;
8568;SDS011;4322;51.104;-4.162;2022-07-10T05:18:03;1.23;;;1.23;;
8568;SDS011;4322;51.104;-4.162;2022-07-10T05:20:32;1.20;;;1.20;;
8568;SDS011;4322;51.104;-4.162;2022-07-10T05:23:01;1.20;;;1.20;;
8568;SDS011;4322;51.104;-4.162;2022-07-10T05:25:29;1.20;;;1.20;;
8568;SDS011;4322;51.104;-4.162;2022-07-10T05:27:58;1.20;;;1.20;;
8568;SDS011;4322;51.104;-4.162;2022-07-10T05:30:26;1.00;;;1.00;;
8568;SDS011;4322;51.104;-4.162;2022-07-10T05:32:55;1.10;;;1.10;;
8568;SDS011;4322;51.104;-4.162;2022-07-10T05:35:23;1.00;;;1.00;;
8568;SDS011;4322;51.104;-4.162;2022-07-10T05:37:52;1.00;;;1.00;;
8568;SDS011;4322;51.104;-4.162;2022-07-10T05:40:20;1.30;;;1.30;;
8568;SDS011;4322;51.104;-4.162;2022-07-10T05:42:48;1.20;;;1.20;;
8568;SDS011;4322;51.104;-4.162;2022-07-10T05:45:17;1.10;;;1.10;;
8568;SDS011;4322;51.104;-4.162;2022-07-10T05:47:45;1.37;;;1.37;;
8568;SDS011;4322;51.104;-4.162;2022-07-10T05:50:13;1.80;;;1.80;;
8568;SDS011;4322;51.104;-4.162;2022-07-10T05:52:41;1.30;;;1.30;;
8568;SDS011;4322;51.104;-4.162;2022-07-10T05:55:11;1.03;;;1.03;;
8568;SDS011;4322;51.104;-4.162;2022-07-10T05:57:38;1.20;;;1.20;;
8568;SDS011;4322;51.104;-4.162;2022-07-10T06:00:07;1.30;;;1.30;;
8568;SDS011;4322;51.104;-4.162;2022-07-10T06:02:36;1.60;;;1.60;;
8568;SDS011;4322;51.104;-4.162;2022-07-10T06:05:05;1.70;;;1.70;;
8568;SDS011;4322;51.104;-4.162;2022-07-10T06:07:34;1.63;;;1.63;;
8568;SDS011;4322;51.104;-4.162;2022-07-10T06:10:03;1.70;;;1.70;;
8568;SDS011;4322;51.104;-4.162;2022-07-10T06:12:34;1.10;;;1.10;;
8568;SDS011;4322;51.104;-4.162;2022-07-10T06:15:03;1.70;;;1.70;;
8568;SDS011;4322;51.104;-4.162;2022-07-10T06:17:32;1.60;;;1.60;;
8568;SDS011;4322;51.104;-4.162;2022-07-10T06:20:00;1.60;;;1.60;;
8568;SDS011;4322;51.104;-4.162;2022-07-10T06:22:28;1.17;;;1.17;;
8568;SDS011;4322;51.104;-4.162;2022-07-10T06:25:00;1.30;;;1.30;;
8568;SDS011;4322;51.104;-4.162;2022-07-10T06:27:30;1.20;;;1.20;;
8568;SDS011;4322;51.104;-4.162;2022-07-10T06:30:00;1.60;;;1.60;;
8568;SDS011;4322;51.104;-4.162;2022-07-10T06:32:29;1.17;;;1.17;;
8568;SDS011;4322;51.104;-4.162;2022-07-10T06:34:57;1.10;;;1.10;;
8568;SDS011;4322;51.104;-4.162;2022-07-10T06:37:25;1.00;;;1.00;;
8568;SDS011;4322;51.104;-4.162;2022-07-10T06:39:53;1.20;;;1.20;;
8568;SDS011;4322;51.104;-4.162;2022-07-10T06:42:21;1.50;;;1.50;;
8568;SDS011;4322;51.104;-4.162;2022-07-10T06:44:49;1.20;;;1.20;;
8568;SDS011;4322;51.104;-4.162;2022-07-10T06:47:19;1.10;;;1.10;;
8568;SDS011;4322;51.104;-4.162;2022-07-10T06:50:05;1.50;;;1.50;;
8568;SDS011;4322;51.104;-4.162;2022-07-10T06:52:35;1.70;;;1.70;;
8568;SDS011;4322;51.104;-4.162;2022-07-10T06:55:03;1.60;;;1.60;;
8568;SDS011;4322;51.104;-4.162;2022-07-10T06:57:32;1.47;;;1.47;;
8568;SDS011;4322;51.104;-4.162;2022-07-10T07:00:01;1.20;;;1.20;;
8568;SDS011;4322;51.104;-4.162;2022-07-10T07:02:32;1.70;;;1.70;;
8568;SDS011;4322;51.104;-4.162;2022-07-10T07:05:00;1.70;;;1.70;;
8568;SDS011;4322;51.104;-4.162;2022-07-10T07:07:29;1.80;;;1.80;;
8568;SDS011;4322;51.104;-4.162;2022-07-10T07:09:57;1.43;;;1.43;;
8568;SDS011;4322;51.104;-4.162;2022-07-10T07:12:25;1.50;;;1.50;;
8568;SDS011;4322;51.104;-4.162;2022-07-10T07:14:53;1.30;;;1.30;;
8568;SDS011;4322;51.104;-4.162;2022-07-10T07:17:21;1.17;;;1.17;;
8568;SDS011;4322;51.104;-4.162;2022-07-10T07:19:55;1.20;;;1.20;;
8568;SDS011;4322;51.104;-4.162;2022-07-10T07:22:43;1.30;;;1.30;;
8568;SDS011;4322;51.104;-4.162;2022-07-10T07:25:28;1.30;;;1.30;;
8568;SDS011;4322;51.104;-4.162;2022-07-10T07:27:57;1.20;;;1.20;;
8568;SDS011;4322;51.104;-4.162;2022-07-10T07:30:25;1.30;;;1.30;;
8568;SDS011;4322;51.104;-4.162;2022-07-10T07:32:53;1.20;;;1.20;;
8568;SDS011;4322;51.104;-4.162;2022-07-10T07:35:22;1.40;;;1.40;;
8568;SDS011;4322;51.104;-4.162;2022-07-10T07:37:50;1.40;;;1.40;;
8568;SDS011;4322;51.104;-4.162;2022-07-10T07:40:19;1.30;;;1.30;;
8568;SDS011;4322;51.104;-4.162;2022-07-10T07:42:49;1.43;;;1.43;;
8568;SDS011;4322;51.104;-4.162;2022-07-10T07:45:17;1.30;;;1.30;;
8568;SDS011;4322;51.104;-4.162;2022-07-10T07:47:46;1.40;;;1.40;;
8568;SDS011;4322;51.104;-4.162;2022-07-10T07:50:16;1.20;;;1.20;;
8568;SDS011;4322;51.104;-4.162;2022-07-10T07:52:47;1.30;;;1.30;;
8568;SDS011;4322;51.104;-4.162;2022-07-10T07:55:16;1.30;;;1.30;;
8568;SDS011;4322;51.104;-4.162;2022-07-10T07:57:46;1.43;;;1.43;;
8568;SDS011;4322;51.104;-4.162;2022-07-10T08:00:15;1.30;;;1.30;;
8568;SDS011;4322;51.104;-4.162;2022-07-10T08:02:44;1.30;;;1.30;;
8568;SDS011;4322;51.104;-4.162;2022-07-10T08:05:13;1.23;;;1.23;;
8568;SDS011;4322;51.104;-4.162;2022-07-10T08:07:41;1.23;;;1.23;;
8568;SDS011;4322;51.104;-4.162;2022-07-10T08:10:13;1.30;;;1.30;;
8568;SDS011;4322;51.104;-4.162;2022-07-10T08:12:42;1.30;;;1.30;;
8568;SDS011;4322;51.104;-4.162;2022-07-10T08:15:15;1.30;;;1.30;;
8568;SDS011;4322;51.104;-4.162;2022-07-10T08:17:46;1.10;;;1.10;;
8568;SDS011;4322;51.104;-4.162;2022-07-10T08:20:15;1.17;;;1.17;;
8568;SDS011;4322;51.104;-4.162;2022-07-10T08:22:44;1.10;;;1.10;;
8568;SDS011;4322;51.104;-4.162;2022-07-10T08:25:14;1.20;;;1.20;;
8568;SDS011;4322;51.104;-4.162;2022-07-10T08:27:42;1.03;;;1.03;;
8568;SDS011;4322;51.104;-4.162;2022-07-10T08:30:11;1.10;;;1.10;;
8568;SDS011;4322;51.104;-4.162;2022-07-10T08:32:39;1.10;;;1.10;;
8568;SDS011;4322;51.104;-4.162;2022-07-10T08:35:08;1.03;;;1.03;;
8568;SDS011;4322;51.104;-4.162;2022-07-10T08:37:37;1.20;;;1.20;;
8568;SDS011;4322;51.104;-4.162;2022-07-10T08:40:07;1.10;;;1.10;;
8568;SDS011;4322;51.104;-4.162;2022-07-10T08:42:38;1.00;;;1.00;;
8568;SDS011;4322;51.104;-4.162;2022-07-10T08:45:06;1.20;;;1.20;;
8568;SDS011;4322;51.104;-4.162;2022-07-10T08:47:35;1.20;;;1.20;;
8568;SDS011;4322;51.104;-4.162;2022-07-10T08:50:06;1.10;;;1.10;;
8568;SDS011;4322;51.104;-4.162;2022-07-10T08:52:43;1.20;;;1.20;;
8568;SDS011;4322;51.104;-4.162;2022-07-10T08:55:23;1.00;;;1.00;;
8568;SDS011;4322;51.104;-4.162;2022-07-10T08:57:53;1.10;;;1.10;;
8568;SDS011;4322;51.104;-4.162;2022-07-10T09:00:23;1.13;;;1.13;;
8568;SDS011;4322;51.104;-4.162;2022-07-10T09:03:03;1.10;;;1.10;;
8568;SDS011;4322;51.104;-4.162;2022-07-10T09:05:31;1.17;;;1.17;;
8568;SDS011;4322;51.104;-4.162;2022-07-10T09:07:59;1.20;;;1.20;;
8568;SDS011;4322;51.104;-4.162;2022-07-10T09:10:28;1.07;;;1.07;;
8568;SDS011;4322;51.104;-4.162;2022-07-10T09:12:58;1.10;;;1.10;;
8568;SDS011;4322;51.104;-4.162;2022-07-10T09:15:28;1.10;;;1.10;;
8568;SDS011;4322;51.104;-4.162;2022-07-10T09:17:59;1.23;;;1.23;;
8568;SDS011;4322;51.104;-4.162;2022-07-10T09:20:32;1.10;;;1.10;;
8568;SDS011;4322;51.104;-4.162;2022-07-10T09:23:08;1.10;;;1.10;;
8568;SDS011;4322;51.104;-4.162;2022-07-10T09:25:41;1.17;;;1.17;;
8568;SDS011;4322;51.104;-4.162;2022-07-10T09:28:11;1.00;;;1.00;;
8568;SDS011;4322;51.104;-4.162;2022-07-10T09:30:41;1.20;;;1.20;;
8568;SDS011;4322;51.104;-4.162;2022-07-10T09:33:19;1.10;;;1.10;;
8568;SDS011;4322;51.104;-4.162;2022-07-10T09:35:55;1.20;;;1.20;;
8568;SDS011;4322;51.104;-4.162;2022-07-10T09:38:49;1.17;;;1.17;;
8568;SDS011;4322;51.104;-4.162;2022-07-10T09:41:19;1.13;;;1.13;;
8568;SDS011;4322;51.104;-4.162;2022-07-10T09:43:50;1.20;;;1.20;;
8568;SDS011;4322;51.104;-4.162;2022-07-10T09:46:20;1.17;;;1.17;;
8568;SDS011;4322;51.104;-4.162;2022-07-10T09:49:00;1.10;;;1.10;;
8568;SDS011;4322;51.104;-4.162;2022-07-10T09:51:29;1.23;;;1.23;;
8568;SDS011;4322;51.104;-4.162;2022-07-10T09:53:59;1.20;;;1.20;;
8568;SDS011;4322;51.104;-4.162;2022-07-10T09:59:15;1.30;;;1.30;;
8568;SDS011;4322;51.104;-4.162;2022-07-10T10:01:45;1.20;;;1.20;;
8568;SDS011;4322;51.104;-4.162;2022-07-10T10:04:15;1.30;;;1.30;;
8568;SDS011;4322;51.104;-4.162;2022-07-10T10:06:45;1.30;;;1.30;;
8568;SDS011;4322;51.104;-4.162;2022-07-10T10:09:19;1.30;;;1.30;;
8568;SDS011;4322;51.104;-4.162;2022-07-10T10:11:52;1.20;;;1.20;;
8568;SDS011;4322;51.104;-4.162;2022-07-10T10:14:25;1.20;;;1.20;;
8568;SDS011;4322;51.104;-4.162;2022-07-10T10:16:55;1.30;;;1.30;;
8568;SDS011;4322;51.104;-4.162;2022-07-10T10:19:24;1.10;;;1.10;;
8568;SDS011;4322;51.104;-4.162;2022-07-10T10:22:09;1.30;;;1.30;;
8568;SDS011;4322;51.104;-4.162;2022-07-10T10:24:41;1.30;;;1.30;;
8568;SDS011;4322;51.104;-4.162;2022-07-10T10:27:12;1.30;;;1.30;;
8568;SDS011;4322;51.104;-4.162;2022-07-10T10:29:43;1.30;;;1.30;;
8568;SDS011;4322;51.104;-4.162;2022-07-10T10:32:12;1.30;;;1.30;;
8568;SDS011;4322;51.104;-4.162;2022-07-10T10:34:41;1.20;;;1.20;;
8568;SDS011;4322;51.104;-4.162;2022-07-10T10:37:32;1.50;;;1.50;;
8568;SDS011;4322;51.104;-4.162;2022-07-10T10:40:03;1.37;;;1.37;;
8568;SDS011;4322;51.104;-4.162;2022-07-10T10:42:33;1.30;;;1.30;;
8568;SDS011;4322;51.104;-4.162;2022-07-10T10:45:22;1.50;;;1.50;;
8568;SDS011;4322;51.104;-4.162;2022-07-10T10:47:57;1.40;;;1.40;;
8568;SDS011;4322;51.104;-4.162;2022-07-10T10:50:46;1.50;;;1.50;;
8568;SDS011;4322;51.104;-4.162;2022-07-10T10:53:15;1.70;;;1.70;;
8568;SDS011;4322;51.104;-4.162;2022-07-10T10:58:53;1.40;;;1.40;;
8568;SDS011;4322;51.104;-4.162;2022-07-10T11:01:26;1.40;;;1.40;;
8568;SDS011;4322;51.104;-4.162;2022-07-10T11:04:12;1.70;;;1.70;;
8568;SDS011;4322;51.104;-4.162;2022-07-10T11:06:42;1.50;;;1.50;;
8568;SDS011;4322;51.104;-4.162;2022-07-10T11:12:01;1.70;;;1.70;;
8568;SDS011;4322;51.104;-4.162;2022-07-10T11:14:32;1.37;;;1.37;;
8568;SDS011;4322;51.104;-4.162;2022-07-10T11:17:04;1.40;;;1.40;;
8568;SDS011;4322;51.104;-4.162;2022-07-10T11:19:33;1.60;;;1.60;;
8568;SDS011;4322;51.104;-4.162;2022-07-10T11:22:08;1.57;;;1.57;;
8568;SDS011;4322;51.104;-4.162;2022-07-10T11:24:51;1.40;;;1.40;;
8568;SDS011;4322;51.104;-4.162;2022-07-10T11:27:34;1.50;;;1.50;;
8568;SDS011;4322;51.104;-4.162;2022-07-10T11:30:18;1.30;;;1.30;;
8568;SDS011;4322;51.104;-4.162;2022-07-10T11:32:47;1.50;;;1.50;;
8568;SDS011;4322;51.104;-4.162;2022-07-10T11:35:17;1.50;;;1.50;;
8568;SDS011;4322;51.104;-4.162;2022-07-10T11:37:50;1.33;;;1.33;;
8568;SDS011;4322;51.104;-4.162;2022-07-10T11:40:19;1.47;;;1.47;;
8568;SDS011;4322;51.104;-4.162;2022-07-10T11:42:51;1.50;;;1.50;;
8568;SDS011;4322;51.104;-4.162;2022-07-10T11:45:26;1.47;;;1.47;;
8568;SDS011;4322;51.104;-4.162;2022-07-10T11:47:58;1.47;;;1.47;;
8568;SDS011;4322;51.104;-4.162;2022-07-10T11:50:27;1.40;;;1.40;;
8568;SDS011;4322;51.104;-4.162;2022-07-10T11:53:01;1.60;;;1.60;;
8568;SDS011;4322;51.104;-4.162;2022-07-10T11:55:29;1.60;;;1.60;;
8568;SDS011;4322;51.104;-4.162;2022-07-10T11:58:15;1.50;;;1.50;;
8568;SDS011;4322;51.104;-4.162;2022-07-10T12:00:43;1.30;;;1.30;;
8568;SDS011;4322;51.104;-4.162;2022-07-10T12:03:17;1.30;;;1.30;;
8568;SDS011;4322;51.104;-4.162;2022-07-10T12:05:54;1.40;;;1.40;;
8568;SDS011;4322;51.104;-4.162;2022-07-10T12:08:23;1.57;;;1.57;;
8568;SDS011;4322;51.104;-4.162;2022-07-10T12:10:51;1.50;;;1.50;;
8568;SDS011;4322;51.104;-4.162;2022-07-10T12:13:21;1.60;;;1.60;;
8568;SDS011;4322;51.104;-4.162;2022-07-10T12:15:49;1.37;;;1.37;;
8568;SDS011;4322;51.104;-4.162;2022-07-10T12:18:20;1.67;;;1.67;;
8568;SDS011;4322;51.104;-4.162;2022-07-10T12:20:49;1.53;;;1.53;;
8568;SDS011;4322;51.104;-4.162;2022-07-10T12:23:19;1.40;;;1.40;;
8568;SDS011;4322;51.104;-4.162;2022-07-10T12:25:49;1.53;;;1.53;;
8568;SDS011;4322;51.104;-4.162;2022-07-10T12:28:51;1.50;;;1.50;;
8568;SDS011;4322;51.104;-4.162;2022-07-10T12:31:27;1.50;;;1.50;;
8568;SDS011;4322;51.104;-4.162;2022-07-10T12:34:01;1.43;;;1.43;;
8568;SDS011;4322;51.104;-4.162;2022-07-10T12:36:43;1.57;;;1.57;;
8568;SDS011;4322;51.104;-4.162;2022-07-10T12:39:13;1.43;;;1.43;;
8568;SDS011;4322;51.104;-4.162;2022-07-10T12:41:58;1.40;;;1.40;;
8568;SDS011;4322;51.104;-4.162;2022-07-10T12:44:34;1.50;;;1.50;;
8568;SDS011;4322;51.104;-4.162;2022-07-10T12:47:04;1.33;;;1.33;;
8568;SDS011;4322;51.104;-4.162;2022-07-10T12:49:49;1.40;;;1.40;;
8568;SDS011;4322;51.104;-4.162;2022-07-10T12:52:22;1.50;;;1.50;;
8568;SDS011;4322;51.104;-4.162;2022-07-10T12:55:07;1.50;;;1.50;;
8568;SDS011;4322;51.104;-4.162;2022-07-10T12:57:47;1.40;;;1.40;;
8568;SDS011;4322;51.104;-4.162;2022-07-10T13:00:16;1.60;;;1.60;;
8568;SDS011;4322;51.104;-4.162;2022-07-10T13:02:46;1.30;;;1.30;;
8568;SDS011;4322;51.104;-4.162;2022-07-10T13:05:31;1.30;;;1.30;;
8568;SDS011;4322;51.104;-4.162;2022-07-10T13:08:05;1.30;;;1.30;;
8568;SDS011;4322;51.104;-4.162;2022-07-10T13:10:36;1.30;;;1.30;;
8568;SDS011;4322;51.104;-4.162;2022-07-10T13:13:04;1.40;;;1.40;;
8568;SDS011;4322;51.104;-4.162;2022-07-10T13:15:32;1.47;;;1.47;;
8568;SDS011;4322;51.104;-4.162;2022-07-10T13:18:06;1.43;;;1.43;;
8568;SDS011;4322;51.104;-4.162;2022-07-10T13:20:36;1.30;;;1.30;;
8568;SDS011;4322;51.104;-4.162;2022-07-10T13:23:05;1.50;;;1.50;;
8568;SDS011;4322;51.104;-4.162;2022-07-10T13:25:33;1.30;;;1.30;;
8568;SDS011;4322;51.104;-4.162;2022-07-10T13:28:01;1.43;;;1.43;;
8568;SDS011;4322;51.104;-4.162;2022-07-10T13:30:29;1.30;;;1.30;;
8568;SDS011;4322;51.104;-4.162;2022-07-10T13:32:58;1.50;;;1.50;;
8568;SDS011;4322;51.104;-4.162;2022-07-10T13:35:27;1.50;;;1.50;;
8568;SDS011;4322;51.104;-4.162;2022-07-10T13:37:57;1.40;;;1.40;;
8568;SDS011;4322;51.104;-4.162;2022-07-10T13:40:26;1.30;;;1.30;;
8568;SDS011;4322;51.104;-4.162;2022-07-10T13:42:55;1.23;;;1.23;;
8568;SDS011;4322;51.104;-4.162;2022-07-10T13:45:25;1.27;;;1.27;;
8568;SDS011;4322;51.104;-4.162;2022-07-10T13:47:58;1.40;;;1.40;;
8568;SDS011;4322;51.104;-4.162;2022-07-10T13:50:26;1.30;;;1.30;;
8568;SDS011;4322;51.104;-4.162;2022-07-10T13:52:54;1.40;;;1.40;;
8568;SDS011;4322;51.104;-4.162;2022-07-10T13:55:24;1.20;;;1.20;;
8568;SDS011;4322;51.104;-4.162;2022-07-10T13:57:52;1.40;;;1.40;;
8568;SDS011;4322;51.104;-4.162;2022-07-10T14:00:21;1.40;;;1.40;;
8568;SDS011;4322;51.104;-4.162;2022-07-10T14:02:49;1.20;;;1.20;;
8568;SDS011;4322;51.104;-4.162;2022-07-10T14:05:18;1.23;;;1.23;;
8568;SDS011;4322;51.104;-4.162;2022-07-10T14:07:46;1.30;;;1.30;;
8568;SDS011;4322;51.104;-4.162;2022-07-10T14:10:15;1.20;;;1.20;;
8568;SDS011;4322;51.104;-4.162;2022-07-10T14:12:43;1.30;;;1.30;;
8568;SDS011;4322;51.104;-4.162;2022-07-10T14:15:11;1.33;;;1.33;;
8568;SDS011;4322;51.104;-4.162;2022-07-10T14:17:40;1.23;;;1.23;;
8568;SDS011;4322;51.104;-4.162;2022-07-10T14:20:09;1.33;;;1.33;;
8568;SDS011;4322;51.104;-4.162;2022-07-10T14:22:37;1.30;;;1.30;;
8568;SDS011;4322;51.104;-4.162;2022-07-10T14:25:06;1.30;;;1.30;;
8568;SDS011;4322;51.104;-4.162;2022-07-10T14:27:37;1.20;;;1.20;;
8568;SDS011;4322;51.104;-4.162;2022-07-10T14:30:05;1.50;;;1.50;;
8568;SDS011;4322;51.104;-4.162;2022-07-10T14:32:34;1.40;;;1.40;;
8568;SDS011;4322;51.104;-4.162;2022-07-10T14:35:03;1.30;;;1.30;;
8568;SDS011;4322;51.104;-4.162;2022-07-10T14:37:31;1.30;;;1.30;;
8568;SDS011;4322;51.104;-4.162;2022-07-10T14:39:59;1.50;;;1.50;;
8568;SDS011;4322;51.104;-4.162;2022-07-10T14:42:27;1.30;;;1.30;;
8568;SDS011;4322;51.104;-4.162;2022-07-10T14:44:58;1.30;;;1.30;;
8568;SDS011;4322;51.104;-4.162;2022-07-10T14:47:26;1.40;;;1.40;;
8568;SDS011;4322;51.104;-4.162;2022-07-10T14:49:55;1.40;;;1.40;;
8568;SDS011;4322;51.104;-4.162;2022-07-10T14:52:23;1.40;;;1.40;;
8568;SDS011;4322;51.104;-4.162;2022-07-10T14:54:54;1.30;;;1.30;;
8568;SDS011;4322;51.104;-4.162;2022-07-10T14:57:22;1.30;;;1.30;;
8568;SDS011;4322;51.104;-4.162;2022-07-10T14:59:50;1.30;;;1.30;;
8568;SDS011;4322;51.104;-4.162;2022-07-10T15:02:19;1.10;;;1.10;;
8568;SDS011;4322;51.104;-4.162;2022-07-10T15:04:47;1.20;;;1.20;;
8568;SDS011;4322;51.104;-4.162;2022-07-10T15:07:16;1.20;;;1.20;;
8568;SDS011;4322;51.104;-4.162;2022-07-10T15:09:44;1.27;;;1.27;;
8568;SDS011;4322;51.104;-4.162;2022-07-10T15:12:12;1.30;;;1.30;;
8568;SDS011;4322;51.104;-4.162;2022-07-10T15:14:41;1.40;;;1.40;;
8568;SDS011;4322;51.104;-4.162;2022-07-10T15:17:09;1.30;;;1.30;;
8568;SDS011;4322;51.104;-4.162;2022-07-10T15:19:38;1.23;;;1.23;;
8568;SDS011;4322;51.104;-4.162;2022-07-10T15:22:06;1.20;;;1.20;;
8568;SDS011;4322;51.104;-4.162;2022-07-10T15:24:34;1.30;;;1.30;;
8568;SDS011;4322;51.104;-4.162;2022-07-10T15:27:03;1.40;;;1.40;;